Time;durP1;ratioP1;P1;durP2;ratioP2;P2;SDS_P1;SDS_P2;PMS_P1;PMS_P2;Temp;Humidity;BMP_temperature;BMP_pressure;BME280_temperature;BME280_humidity;BME280_pressure;Samples;Min_cycle;Max_cycle;Signal;HPM_P1;HPM_P2
2022/12/13 00:01:51;;;;;;;;;;;;;;;20.88;27.30;97142.91;5120716;28;961;-81
2022/12/13 00:04:17;;;;;;;;;;;;;;;20.94;26.99;97158.84;5120148;28;917;-80
2022/12/13 00:06:42;;;;;;;;;;;;;;;20.69;27.63;97151.28;5119001;28;1546;-80
2022/12/13 00:09:09;;;;;;;;;;;;;;;20.85;27.46;97155.16;5098011;28;1001;-80
2022/12/13 00:11:34;;;;;;;;;;;;;;;21.04;27.18;97162.53;5100855;28;1212;-80
2022/12/13 00:14:00;;;;;;;;;;;;;;;21.33;26.81;97157.38;5098999;28;1983;-80
2022/12/13 00:16:26;;;;;;;;;;;;;;;21.31;26.55;97165.56;5100721;28;1118;-80
2022/12/13 00:18:54;;;;;;;;;;;;;;;21.00;27.10;97173.97;5099238;28;1098;-80
2022/12/13 00:21:20;;;;;;;;;;;;;;;20.96;27.07;97178.19;5102696;28;1491;-81
2022/12/13 00:23:45;;;;;;;;;;;;;;;20.92;27.22;97183.97;5119262;28;910;-81
2022/12/13 00:26:12;;;;;;;;;;;;;;;21.14;26.80;97189.63;5121388;28;984;-80
2022/12/13 00:28:37;;;;;;;;;;;;;;;21.11;26.85;97167.91;5119579;28;936;-81
2022/12/13 00:31:03;;;;;;;;;;;;;;;21.33;26.61;97185.69;5121387;28;927;-80
2022/12/13 00:33:28;;;;;;;;;;;;;;;20.88;27.20;97183.31;5119459;28;833;-81
2022/12/13 00:35:54;;;;;;;;;;;;;;;20.67;27.61;97172.78;5120300;28;1906;-80
2022/12/13 00:38:19;;;;;;;;;;;;;;;20.54;27.55;97170.00;5119605;28;1008;-80
2022/12/13 00:40:45;;;;;;;;;;;;;;;21.01;26.93;97175.56;5120585;28;940;-80
2022/12/13 00:43:11;;;;;;;;;;;;;;;21.00;26.92;97161.88;5118697;28;943;-80
2022/12/13 00:45:37;;;;;;;;;;;;;;;21.13;26.81;97164.63;5120149;28;857;-81
2022/12/13 00:48:03;;;;;;;;;;;;;;;20.93;26.99;97150.81;5119789;28;904;-81
2022/12/13 00:50:28;;;;;;;;;;;;;;;20.65;27.45;97153.44;5120427;28;983;-81
2022/12/13 00:52:54;;;;;;;;;;;;;;;20.53;27.50;97149.44;5119188;28;1480;-81
2022/12/13 00:55:19;;;;;;;;;;;;;;;20.83;27.46;97147.16;5120272;28;1902;-80
2022/12/13 00:57:44;;;;;;;;;;;;;;;21.14;26.84;97155.69;5119144;28;997;-80
2022/12/13 01:00:10;;;;;;;;;;;;;;;21.18;26.79;97145.00;5119052;28;961;-80
2022/12/13 01:02:36;;;;;;;;;;;;;;;20.69;27.13;97136.38;5119544;28;960;-81
2022/12/13 01:05:01;;;;;;;;;;;;;;;20.76;27.19;97141.75;5117984;28;993;-81
2022/12/13 01:07:27;;;;;;;;;;;;;;;20.76;27.28;97139.72;5099415;28;1613;-81
2022/12/13 01:09:52;;;;;;;;;;;;;;;21.13;26.91;97125.81;5119091;28;1012;-80
2022/12/13 01:12:18;;;;;;;;;;;;;;;21.17;26.62;97125.66;5119581;28;1019;-79
2022/12/13 01:14:43;;;;;;;;;;;;;;;21.15;26.79;97123.31;5118750;28;1920;-81
2022/12/13 01:17:08;;;;;;;;;;;;;;;20.90;26.96;97137.63;5118690;28;876;-80
2022/12/13 01:19:34;;;;;;;;;;;;;;;20.91;26.75;97133.53;5118904;28;1119;-81
2022/12/13 01:22:00;;;;;;;;;;;;;;;20.92;26.93;97152.06;5119381;28;1614;-81
2022/12/13 01:24:26;;;;;;;;;;;;;;;20.93;27.16;97150.81;5118989;28;933;-80
2022/12/13 01:26:51;;;;;;;;;;;;;;;21.08;26.76;97146.19;5120112;28;960;-80
2022/12/13 01:29:17;;;;;;;;;;;;;;;21.13;26.82;97131.47;5100219;28;1015;-80
2022/12/13 01:31:43;;;;;;;;;;;;;;;21.00;26.64;97150.56;5120688;28;934;-80
2022/12/13 01:34:11;;;;;;;;;;;;;;;20.84;27.14;97154.38;5118646;28;1980;-81
2022/12/13 01:36:40;;;;;;;;;;;;;;;20.69;27.29;97134.31;5117687;28;1568;-81
2022/12/13 01:39:06;;;;;;;;;;;;;;;21.04;26.89;97139.91;5119148;28;1066;-80
2022/12/13 01:41:32;;;;;;;;;;;;;;;21.11;26.64;97155.81;5118981;28;943;-80
2022/12/13 01:44:02;;;;;;;;;;;;;;;21.23;26.71;97152.88;5118438;28;792;-81
2022/12/13 01:46:31;;;;;;;;;;;;;;;20.84;27.02;97139.47;5119489;28;1015;-81
2022/12/13 01:49:09;;;;;;;;;;;;;;;20.73;27.06;97140.66;5116264;28;1368;-80
2022/12/13 01:51:40;;;;;;;;;;;;;;;20.61;27.29;97149.94;5117963;28;869;-80
2022/12/13 01:54:07;;;;;;;;;;;;;;;21.18;26.76;97149.88;5117352;28;1973;-80
2022/12/13 01:56:35;;;;;;;;;;;;;;;21.25;26.44;97139.09;5118759;28;841;-81
2022/12/13 01:59:00;;;;;;;;;;;;;;;21.04;26.54;97157.66;5116855;28;901;-80
2022/12/13 02:01:26;;;;;;;;;;;;;;;20.80;26.90;97157.34;5117174;28;1475;-80
2022/12/13 02:03:51;;;;;;;;;;;;;;;20.57;27.33;97154.94;5117640;28;906;-80
2022/12/13 02:06:18;;;;;;;;;;;;;;;20.63;27.58;97127.69;5118435;28;1011;-80
2022/12/13 02:08:44;;;;;;;;;;;;;;;21.04;26.68;97118.06;5116463;28;963;-80
2022/12/13 02:11:09;;;;;;;;;;;;;;;21.29;26.45;97145.38;5119318;28;1041;-80
2022/12/13 02:13:35;;;;;;;;;;;;;;;21.44;26.07;97170.31;5117539;28;870;-81
2022/12/13 02:16:09;;;;;;;;;;;;;;;20.87;26.81;97167.59;5119336;28;1917;-80
2022/12/13 02:18:53;;;;;;;;;;;;;;;20.58;27.45;97172.72;5117196;28;1772;-81
2022/12/13 02:21:19;;;;;;;;;;;;;;;20.71;27.31;97162.13;5119110;28;1068;-80
2022/12/13 02:24:03;;;;;;;;;;;;;;;21.08;26.90;97160.34;5117159;28;990;-81
2022/12/13 02:26:47;;;;;;;;;;;;;;;21.23;26.40;97152.88;5118533;28;966;-81
2022/12/13 02:29:13;;;;;;;;;;;;;;;21.07;26.48;97153.13;5117636;28;939;-80
2022/12/13 02:31:38;;;;;;;;;;;;;;;20.83;26.97;97160.47;5117278;28;1490;-80
2022/12/13 02:34:12;;;;;;;;;;;;;;;20.68;27.03;97163.84;5114437;28;1979;-80
2022/12/13 02:36:56;;;;;;;;;;;;;;;21.28;26.40;97171.31;5075495;28;1023;-80
2022/12/13 02:39:22;;;;;;;;;;;;;;;21.45;25.81;97197.38;5074505;28;1147;-81
2022/12/13 02:41:51;;;;;;;;;;;;;;;21.49;25.41;97187.50;5059304;28;865;-81
2022/12/13 02:44:18;;;;;;;;;;;;;;;20.96;26.37;97189.50;5058624;28;989;-81
2022/12/13 02:46:49;;;;;;;;;;;;;;;20.81;26.88;97190.00;5058822;28;1120;-81
2022/12/13 02:49:15;;;;;;;;;;;;;;;20.94;26.61;97209.75;5056386;28;1459;-81
2022/12/13 02:51:40;;;;;;;;;;;;;;;21.30;26.05;97202.81;5058001;28;1626;-80
2022/12/13 02:54:06;;;;;;;;;;;;;;;21.28;26.25;97203.22;5057982;28;1949;-81
2022/12/13 02:56:31;;;;;;;;;;;;;;;21.07;26.27;97182.19;5075943;28;960;-81
2022/12/13 02:58:57;;;;;;;;;;;;;;;20.73;26.66;97183.06;5074492;28;1136;-81
2022/12/13 03:01:40;;;;;;;;;;;;;;;20.56;26.96;97167.50;5059194;28;992;-80
2022/12/13 03:04:11;;;;;;;;;;;;;;;20.89;26.72;97150.19;5075076;28;959;-81
2022/12/13 03:06:55;;;;;;;;;;;;;;;21.03;26.47;97155.28;5060926;28;1600;-81
2022/12/13 03:09:36;;;;;;;;;;;;;;;21.08;26.48;97158.31;5117023;28;834;-80
2022/12/13 03:15:12;;;;;;;;;;;;;;;20.47;27.07;97130.72;5116882;28;1910;-80
2022/12/13 03:17:42;;;;;;;;;;;;;;;20.86;26.62;97145.44;5118185;28;996;-81
2022/12/13 03:20:08;;;;;;;;;;;;;;;21.04;26.23;97179.50;5115730;28;1491;-81
2022/12/13 03:22:33;;;;;;;;;;;;;;;21.14;26.20;97195.28;5116740;28;930;-80
2022/12/13 03:24:59;;;;;;;;;;;;;;;21.21;26.04;97212.00;5119342;28;1129;-80
2022/12/13 03:27:24;;;;;;;;;;;;;;;20.92;26.12;97223.56;5122667;28;932;-80
2022/12/13 03:29:49;;;;;;;;;;;;;;;20.73;26.67;97221.84;5121188;28;869;-80
2022/12/13 03:32:15;;;;;;;;;;;;;;;20.58;26.74;97215.09;5121896;28;885;-80
2022/12/13 03:34:41;;;;;;;;;;;;;;;21.28;26.07;97211.72;5120082;28;1980;-81
2022/12/13 03:37:06;;;;;;;;;;;;;;;21.13;26.05;97195.72;5122454;28;905;-80
2022/12/13 03:39:31;;;;;;;;;;;;;;;21.17;25.83;97191.53;5119774;28;1015;-81
2022/12/13 03:41:57;;;;;;;;;;;;;;;20.95;26.46;97179.44;5121892;28;912;-80
2022/12/13 03:44:22;;;;;;;;;;;;;;;20.75;26.56;97180.53;5120486;28;933;-81
2022/12/13 03:46:48;;;;;;;;;;;;;;;21.11;26.08;97189.75;5102465;28;1196;-79
2022/12/13 03:49:13;;;;;;;;;;;;;;;21.56;25.39;97197.75;5120952;28;1495;-80
2022/12/13 03:51:39;;;;;;;;;;;;;;;21.36;25.62;97192.47;5121079;28;1566;-80
2022/12/13 03:54:04;;;;;;;;;;;;;;;20.89;26.13;97195.41;5119009;28;1975;-81
2022/12/13 03:56:29;;;;;;;;;;;;;;;20.51;26.74;97204.81;5121433;28;815;-81
2022/12/13 03:58:55;;;;;;;;;;;;;;;20.92;26.45;97226.38;5120545;28;873;-81
2022/12/13 04:01:22;;;;;;;;;;;;;;;21.39;25.36;97233.19;5121442;28;940;-81
2022/12/13 04:03:47;;;;;;;;;;;;;;;21.36;25.55;97234.13;5120395;28;948;-80
2022/12/13 04:06:13;;;;;;;;;;;;;;;21.44;25.46;97226.94;5121375;28;927;-81
2022/12/13 04:08:38;;;;;;;;;;;;;;;21.03;25.95;97232.44;5118893;28;1402;-80
2022/12/13 04:13:31;;;;;;;;;;;;;;;20.94;26.11;97231.59;5121041;28;1054;-81
2022/12/13 04:13:49;;;;;;;;;;;;;;;21.02;26.07;97238.56;5119492;28;865;-81
2022/12/13 04:16:15;;;;;;;;;;;;;;;21.03;26.30;97235.25;5085678;28;1922;-80
2022/12/13 04:18:40;;;;;;;;;;;;;;;21.14;26.06;97246.22;5116493;28;1600;-81
2022/12/13 04:21:06;;;;;;;;;;;;;;;21.22;25.93;97246.72;5098021;28;1489;-80
2022/12/13 04:23:31;;;;;;;;;;;;;;;20.94;26.24;97249.34;5096805;28;936;-81
2022/12/13 04:25:57;;;;;;;;;;;;;;;20.84;26.49;97261.03;5098493;28;1055;-81
2022/12/13 04:28:22;;;;;;;;;;;;;;;20.91;26.26;97260.78;5096988;28;948;-81
2022/12/13 04:30:49;;;;;;;;;;;;;;;21.28;25.68;97265.47;5065125;28;984;-80
2022/12/13 04:33:14;;;;;;;;;;;;;;;21.39;25.78;97269.97;5096171;28;1528;-80
2022/12/13 04:35:39;;;;;;;;;;;;;;;20.95;26.02;97264.28;5097888;28;1921;-81
2022/12/13 04:38:05;;;;;;;;;;;;;;;21.02;25.97;97270.47;5062932;28;1010;-81
2022/12/13 04:40:30;;;;;;;;;;;;;;;20.84;26.53;97261.84;5097123;28;972;-81
2022/12/13 04:42:56;;;;;;;;;;;;;;;21.08;26.20;97265.00;5063782;28;949;-80
2022/12/13 04:45:22;;;;;;;;;;;;;;;21.36;25.61;97256.75;5097815;28;946;-80
2022/12/13 04:47:48;;;;;;;;;;;;;;;21.27;25.79;97252.56;5096722;28;1993;-81
2022/12/13 04:50:13;;;;;;;;;;;;;;;20.81;26.09;97246.56;5096318;28;1954;-80
2022/12/13 04:52:39;;;;;;;;;;;;;;;20.72;26.35;97249.28;5079081;28;941;-81
2022/12/13 04:55:05;;;;;;;;;;;;;;;20.53;26.67;97253.22;5118184;28;1933;-80
2022/12/13 04:57:30;;;;;;;;;;;;;;;21.13;25.63;97250.25;5121254;28;938;-80
2022/12/13 04:59:56;;;;;;;;;;;;;;;21.18;25.60;97252.50;5119422;28;906;-80
2022/12/13 05:02:21;;;;;;;;;;;;;;;21.01;25.68;97245.47;5120597;28;949;-81
2022/12/13 05:04:46;;;;;;;;;;;;;;;20.94;26.09;97248.56;5118499;28;1615;-81
2022/12/13 05:07:12;;;;;;;;;;;;;;;20.70;26.33;97248.97;5120278;28;914;-80
2022/12/13 05:09:37;;;;;;;;;;;;;;;21.08;25.79;97254.47;5119097;28;1005;-80
2022/12/13 05:12:03;;;;;;;;;;;;;;;21.14;25.73;97251.06;5119727;28;1078;-80
2022/12/13 05:14:29;;;;;;;;;;;;;;;21.20;25.28;97249.25;5119415;28;1905;-81
2022/12/13 05:16:54;;;;;;;;;;;;;;;20.89;25.91;97252.75;5120317;28;971;-80
2022/12/13 05:19:20;;;;;;;;;;;;;;;20.84;25.87;97244.88;5119435;27;976;-81
2022/12/13 05:21:45;;;;;;;;;;;;;;;21.02;26.02;97255.53;5118747;28;1483;-81
2022/12/13 05:24:11;;;;;;;;;;;;;;;21.27;25.17;97248.97;5117682;28;1167;-81
2022/12/13 05:26:36;;;;;;;;;;;;;;;21.23;25.19;97249.09;5120264;28;971;-81
2022/12/13 05:29:02;;;;;;;;;;;;;;;21.21;25.33;97257.25;5119115;28;1023;-81
2022/12/13 05:31:27;;;;;;;;;;;;;;;20.98;25.40;97263.34;5119745;28;893;-81
2022/12/13 05:33:53;;;;;;;;;;;;;;;20.76;25.68;97272.59;5118763;28;953;-81
2022/12/13 05:36:18;;;;;;;;;;;;;;;21.29;25.20;97269.88;5120313;28;1917;-81
2022/12/13 05:38:43;;;;;;;;;;;;;;;21.24;25.04;97278.97;5118510;28;862;-80
2022/12/13 05:41:12;;;;;;;;;;;;;;;21.24;24.95;97295.97;5120462;28;869;-81
2022/12/13 05:43:37;;;;;;;;;;;;;;;21.39;24.68;97284.91;5117167;28;1159;-81
2022/12/13 05:46:03;;;;;;;;;;;;;;;21.07;25.05;97292.50;5089166;28;1235;-81
2022/12/13 05:48:28;;;;;;;;;;;;;;;20.66;25.57;97290.69;5108349;28;1208;-82
2022/12/13 05:50:54;;;;;;;;;;;;;;;20.79;25.50;97293.50;5106861;28;1363;-81
2022/12/13 05:53:19;;;;;;;;;;;;;;;20.94;25.05;97296.63;5108483;28;1211;-82
2022/12/13 05:55:45;;;;;;;;;;;;;;;20.97;24.97;97307.03;5109015;28;1972;-82
2022/12/13 05:58:12;;;;;;;;;;;;;;;21.30;24.66;97299.00;5106966;28;1282;-82
2022/12/13 06:00:37;;;;;;;;;;;;;;;21.04;24.80;97301.91;5109445;27;1219;-82
2022/12/13 06:03:04;;;;;;;;;;;;;;;20.64;25.31;97298.84;5107355;28;1258;-82
2022/12/13 06:05:29;;;;;;;;;;;;;;;20.60;25.43;97311.53;5101628;28;1223;-81
2022/12/13 06:07:55;;;;;;;;;;;;;;;21.08;24.85;97313.88;5106359;28;1172;-81
2022/12/13 06:10:21;;;;;;;;;;;;;;;21.21;24.17;97324.38;5107538;28;1247;-81
2022/12/13 06:12:47;;;;;;;;;;;;;;;21.38;24.15;97322.16;5106001;28;1175;-81
2022/12/13 06:15:12;;;;;;;;;;;;;;;21.14;24.29;97322.59;5107322;28;1978;-81
2022/12/13 06:17:38;;;;;;;;;;;;;;;21.02;24.34;97334.72;5108174;28;1243;-81
2022/12/13 06:20:04;;;;;;;;;;;;;;;20.91;24.64;97339.97;5108913;28;1125;-82
2022/12/13 06:22:29;;;;;;;;;;;;;;;20.89;24.73;97345.28;5107632;28;1148;-81
2022/12/13 06:24:55;;;;;;;;;;;;;;;21.22;24.01;97346.53;5109891;28;1303;-81
2022/12/13 06:27:20;;;;;;;;;;;;;;;21.28;23.93;97349.56;5107670;28;1242;-82
2022/12/13 06:29:45;;;;;;;;;;;;;;;21.53;23.52;97351.53;5108325;28;1279;-82
2022/12/13 06:32:11;;;;;;;;;;;;;;;21.14;23.63;97359.38;5109318;28;1227;-81
2022/12/13 06:34:36;;;;;;;;;;;;;;;21.22;23.63;97360.69;5106778;28;1905;-82
2022/12/13 06:37:03;;;;;;;;;;;;;;;21.05;23.58;97364.94;5107448;28;1227;-82
2022/12/13 06:39:29;;;;;;;;;;;;;;;22.03;22.71;97355.34;5108311;28;1227;-81
2022/12/13 06:41:54;;;;;;;;;;;;;;;21.88;22.33;97368.47;5107510;28;1259;-82
2022/12/13 06:44:20;;;;;;;;;;;;;;;21.22;23.12;97366.34;5106345;28;1294;-82
2022/12/13 06:46:45;;;;;;;;;;;;;;;20.72;23.94;97362.38;5108945;28;1219;-82
2022/12/13 06:49:11;;;;;;;;;;;;;;;21.20;23.46;97373.72;5089191;28;1248;-82
2022/12/13 06:51:36;;;;;;;;;;;;;;;21.82;22.36;97371.88;5106548;28;1354;-81
2022/12/13 06:54:02;;;;;;;;;;;;;;;21.73;22.42;97383.16;5106422;28;1917;-81
2022/12/13 06:56:27;;;;;;;;;;;;;;;21.26;22.84;97384.00;5109166;28;1374;-82
2022/12/13 06:58:53;;;;;;;;;;;;;;;21.44;22.60;97389.03;5104992;28;1414;-82
2022/12/13 07:01:18;;;;;;;;;;;;;;;21.63;22.17;97406.19;5110229;28;1282;-82
2022/12/13 07:03:44;;;;;;;;;;;;;;;21.51;22.67;97413.47;5110908;28;1274;-82
2022/12/13 07:06:13;;;;;;;;;;;;;;;20.92;23.48;97420.72;5111537;28;1323;-81
2022/12/13 07:08:39;;;;;;;;;;;;;;;20.72;23.72;97435.09;5115108;28;1203;-82
2022/12/13 07:11:04;;;;;;;;;;;;;;;20.60;23.84;97439.50;5113680;28;1227;-82
2022/12/13 07:13:30;;;;;;;;;;;;;;;20.89;23.60;97439.41;5109516;28;1362;-82
2022/12/13 07:15:55;;;;;;;;;;;;;;;21.14;23.43;97440.59;5117933;28;1905;-83
2022/12/13 07:18:21;;;;;;;;;;;;;;;20.66;23.77;97454.66;5121391;28;952;-80
2022/12/13 07:20:46;;;;;;;;;;;;;;;20.54;24.20;97455.44;5122879;28;945;-80
2022/12/13 07:23:12;;;;;;;;;;;;;;;20.67;23.94;97461.88;5120520;28;834;-80
2022/12/13 07:25:38;;;;;;;;;;;;;;;21.15;23.52;97462.78;5116295;28;1191;-81
2022/12/13 07:28:05;;;;;;;;;;;;;;;21.24;23.27;97467.72;5108750;28;1228;-81
2022/12/13 07:30:37;;;;;;;;;;;;;;;20.91;23.48;97464.38;5112879;28;1212;-81
2022/12/13 07:33:03;;;;;;;;;;;;;;;21.02;23.57;97462.78;5109788;28;1183;-81
2022/12/13 07:35:29;;;;;;;;;;;;;;;21.26;23.13;97474.53;5110799;28;1915;-82
2022/12/13 07:37:54;;;;;;;;;;;;;;;21.37;23.15;97484.72;5109122;28;1227;-82
2022/12/13 07:40:20;;;;;;;;;;;;;;;21.46;22.95;97477.13;5111903;28;1274;-81
2022/12/13 07:42:51;;;;;;;;;;;;;;;21.31;23.20;97476.81;5111887;28;1287;-82
2022/12/13 07:45:17;;;;;;;;;;;;;;;20.84;23.79;97487.25;5118352;28;1294;-82
2022/12/13 07:47:42;;;;;;;;;;;;;;;20.61;23.94;97491.97;5118703;28;1196;-82
2022/12/13 07:50:08;;;;;;;;;;;;;;;21.09;23.52;97504.22;5117854;28;1272;-83
2022/12/13 07:52:33;;;;;;;;;;;;;;;21.63;22.81;97503.22;5118262;28;1300;-81
2022/12/13 07:54:59;;;;;;;;;;;;;;;21.15;23.01;97508.06;5118333;28;1921;-81
2022/12/13 07:57:24;;;;;;;;;;;;;;;20.81;23.78;97520.03;5119188;28;992;-81
2022/12/13 07:59:50;;;;;;;;;;;;;;;20.73;23.73;97522.31;5084253;28;931;-81
2022/12/13 08:02:15;;;;;;;;;;;;;;;21.20;23.38;97532.94;5119163;28;993;-80
2022/12/13 08:04:41;;;;;;;;;;;;;;;21.44;22.79;97529.75;5084134;28;1305;-81
2022/12/13 08:07:09;;;;;;;;;;;;;;;21.30;23.25;97531.84;5101885;28;1246;-81
2022/12/13 08:09:35;;;;;;;;;;;;;;;21.00;23.12;97532.38;5118025;28;896;-81
2022/12/13 08:12:01;;;;;;;;;;;;;;;20.85;23.78;97539.72;5067250;28;1103;-81
2022/12/13 08:14:26;;;;;;;;;;;;;;;20.91;23.54;97537.91;5118429;28;1992;-81
2022/12/13 08:16:51;;;;;;;;;;;;;;;21.55;22.81;97531.00;5063573;28;1124;-77
2022/12/13 08:19:17;;;;;;;;;;;;;;;21.36;22.80;97526.41;5097714;28;1344;-71
2022/12/13 08:21:42;;;;;;;;;;;;;;;21.29;23.17;97535.06;5097868;28;1017;-74
2022/12/13 08:24:08;;;;;;;;;;;;;;;21.13;23.08;97533.16;5098696;28;1445;-80
2022/12/13 08:26:34;;;;;;;;;;;;;;;20.90;23.69;97525.03;5098351;28;912;-80
2022/12/13 08:29:00;;;;;;;;;;;;;;;20.75;23.72;97538.81;5098614;28;1070;-81
2022/12/13 08:31:25;;;;;;;;;;;;;;;20.97;23.38;97539.72;5099588;28;895;-80
2022/12/13 08:33:50;;;;;;;;;;;;;;;21.32;22.87;97535.00;5098470;28;909;-81
2022/12/13 08:36:16;;;;;;;;;;;;;;;21.29;22.84;97535.84;5098229;28;1961;-81
2022/12/13 08:38:42;;;;;;;;;;;;;;;20.84;23.32;97535.31;5098287;28;954;-81
2022/12/13 08:41:08;;;;;;;;;;;;;;;20.59;23.54;97539.69;5099223;28;910;-80
2022/12/13 08:43:33;;;;;;;;;;;;;;;20.93;23.33;97541.06;5098778;28;869;-81
2022/12/13 08:45:59;;;;;;;;;;;;;;;21.05;23.23;97526.16;5098991;28;923;-80
2022/12/13 08:48:25;;;;;;;;;;;;;;;21.73;21.90;97530.38;5098382;28;1127;-80
2022/12/13 08:50:50;;;;;;;;;;;;;;;21.27;22.54;97532.69;5098481;28;957;-80
2022/12/13 08:53:16;;;;;;;;;;;;;;;20.90;23.25;97531.47;5098099;28;859;-80
2022/12/13 08:55:42;;;;;;;;;;;;;;;20.73;23.15;97527.97;5098767;28;1984;-80
2022/12/13 08:58:07;;;;;;;;;;;;;;;21.45;22.46;97517.19;5098262;28;953;-80
2022/12/13 09:00:34;;;;;;;;;;;;;;;21.57;22.13;97516.38;5098743;28;865;-80
2022/12/13 09:02:59;;;;;;;;;;;;;;;21.41;22.33;97503.19;5097147;28;960;-80
2022/12/13 09:05:25;;;;;;;;;;;;;;;20.91;22.97;97515.28;5097332;28;1216;-80
2022/12/13 09:07:57;;;;;;;;;;;;;;;20.74;22.84;97515.41;5098044;28;865;-80
2022/12/13 09:10:22;;;;;;;;;;;;;;;21.53;21.79;97522.16;5098036;28;1032;-80
2022/12/13 09:12:48;;;;;;;;;;;;;;;21.75;21.48;97510.88;5096592;28;890;-80
2022/12/13 09:15:13;;;;;;;;;;;;;;;21.74;21.43;97514.19;5098294;28;1965;-81
2022/12/13 09:17:39;;;;;;;;;;;;;;;21.03;22.46;97506.00;5097953;28;851;-80
2022/12/13 09:20:08;;;;;;;;;;;;;;;20.97;22.21;97502.16;5096511;28;1030;-80
2022/12/13 09:22:34;;;;;;;;;;;;;;;21.33;21.70;97501.81;5097563;28;1060;-80
2022/12/13 09:25:03;;;;;;;;;;;;;;;21.45;21.69;97497.38;5078621;28;977;-80
2022/12/13 09:27:29;;;;;;;;;;;;;;;21.25;21.72;97506.13;5062665;28;953;-80
2022/12/13 09:29:54;;;;;;;;;;;;;;;20.95;22.31;97516.75;5096259;28;1197;-80
2022/12/13 09:32:20;;;;;;;;;;;;;;;20.60;22.60;97501.69;5098703;28;953;-80
2022/12/13 09:34:46;;;;;;;;;;;;;;;20.79;22.10;97497.88;5097762;28;2009;-80
2022/12/13 09:37:12;;;;;;;;;;;;;;;21.45;21.25;97498.19;5098351;28;932;-80
2022/12/13 09:39:37;;;;;;;;;;;;;;;22.11;20.49;97503.97;5097524;28;933;-80
2022/12/13 09:42:03;;;;;;;;;;;;;;;20.97;21.84;97502.16;5096938;28;845;-80
2022/12/13 09:44:30;;;;;;;;;;;;;;;20.88;22.18;97505.69;5096285;28;860;-80
2022/12/13 09:46:55;;;;;;;;;;;;;;;20.94;21.81;97503.88;5097500;28;874;-80
2022/12/13 09:49:21;;;;;;;;;;;;;;;21.56;21.08;97492.16;5096185;28;984;-80
2022/12/13 09:51:49;;;;;;;;;;;;;;;21.84;20.53;97485.50;5097709;28;947;-80
2022/12/13 09:54:18;;;;;;;;;;;;;;;21.06;21.40;97483.28;5096478;28;1975;-80
2022/12/13 09:56:49;;;;;;;;;;;;;;;21.04;21.51;97479.31;5097257;28;936;-80
2022/12/13 09:59:15;;;;;;;;;;;;;;;21.26;21.51;97474.53;5096979;28;896;-80
2022/12/13 10:01:40;;;;;;;;;;;;;;;21.61;20.65;97482.31;5097421;28;855;-79
2022/12/13 10:04:07;;;;;;;;;;;;;;;21.86;20.26;97476.53;5096922;28;907;-80
2022/12/13 10:06:33;;;;;;;;;;;;;;;21.12;21.25;97472.16;5096004;28;905;-80
2022/12/13 10:08:59;;;;;;;;;;;;;;;20.81;21.56;97472.75;5097036;28;892;-80
2022/12/13 10:11:24;;;;;;;;;;;;;;;20.86;21.43;97470.59;5096244;28;1036;-80
2022/12/13 10:13:59;;;;;;;;;;;;;;;21.47;20.88;97466.59;5095681;28;1571;-80
2022/12/13 10:16:28;;;;;;;;;;;;;;;21.87;20.18;97466.00;5099900;28;2010;-80
2022/12/13 10:18:53;;;;;;;;;;;;;;;21.88;19.81;97461.91;5117361;28;933;-80
2022/12/13 10:21:34;;;;;;;;;;;;;;;21.00;20.90;97475.81;5116637;28;909;-80
2022/12/13 10:24:20;;;;;;;;;;;;;;;20.77;21.11;97472.06;5117115;28;897;-80
2022/12/13 10:27:06;;;;;;;;;;;;;;;21.15;21.23;97474.09;5117255;28;973;-80
2022/12/13 10:29:31;;;;;;;;;;;;;;;21.41;20.31;97479.75;5074024;28;941;-80
2022/12/13 10:31:56;;;;;;;;;;;;;;;21.49;20.36;97476.19;5074624;28;1074;-80
2022/12/13 10:34:22;;;;;;;;;;;;;;;21.11;20.52;97476.25;5059966;28;1914;-80
2022/12/13 10:36:47;;;;;;;;;;;;;;;21.06;20.87;97477.59;5076788;28;1126;-80
2022/12/13 10:39:17;;;;;;;;;;;;;;;21.03;20.71;97460.75;5051621;28;1266;-80
2022/12/13 10:41:43;;;;;;;;;;;;;;;21.46;20.25;97465.03;5066309;28;1308;-80
2022/12/13 10:44:11;;;;;;;;;;;;;;;21.33;20.17;97463.00;5065822;28;1269;-80
2022/12/13 10:46:40;;;;;;;;;;;;;;;21.46;20.13;97456.53;5069126;28;1253;-81
2022/12/13 10:49:14;;;;;;;;;;;;;;;21.43;20.35;97455.38;5066836;28;1478;-80
2022/12/13 10:51:40;;;;;;;;;;;;;;;20.98;20.68;97453.63;5066746;28;1287;-80
2022/12/13 10:54:10;;;;;;;;;;;;;;;20.97;20.90;97448.44;5066457;28;1244;-81
2022/12/13 10:56:38;;;;;;;;;;;;;;;21.49;20.31;97458.44;5063971;28;1252;-80
2022/12/13 10:59:23;;;;;;;;;;;;;;;21.37;20.17;97457.22;5069157;28;1185;-80
2022/12/13 11:01:49;;;;;;;;;;;;;;;21.44;20.06;97461.84;5080815;28;985;-80
2022/12/13 11:04:31;;;;;;;;;;;;;;;20.97;20.64;97457.69;5097961;28;1048;-80
2022/12/13 11:07:00;;;;;;;;;;;;;;;20.79;20.88;97463.94;5097973;28;924;-80
2022/12/13 11:09:27;;;;;;;;;;;;;;;21.12;20.64;97458.03;5091906;28;1366;-80
2022/12/13 11:11:53;;;;;;;;;;;;;;;21.70;19.82;97463.34;5085600;28;1184;-81
2022/12/13 11:14:19;;;;;;;;;;;;;;;21.32;20.32;97460.63;5085319;28;1913;-81
2022/12/13 11:16:48;;;;;;;;;;;;;;;21.00;20.96;97468.13;5068285;28;1276;-80
2022/12/13 11:19:16;;;;;;;;;;;;;;;20.87;21.04;97472.19;5087342;28;1334;-80
2022/12/13 11:21:45;;;;;;;;;;;;;;;21.15;20.72;97462.78;5090710;28;1229;-83
2022/12/13 11:24:14;;;;;;;;;;;;;;;21.42;20.23;97465.13;5082899;28;1019;-80
2022/12/13 11:26:41;;;;;;;;;;;;;;;21.57;20.19;97459.78;5084174;28;1280;-80
2022/12/13 11:29:07;;;;;;;;;;;;;;;21.09;20.45;97464.59;5084973;28;1284;-80
2022/12/13 11:31:40;;;;;;;;;;;;;;;21.00;20.49;97467.31;5088958;28;1339;-81
2022/12/13 11:34:05;;;;;;;;;;;;;;;20.94;20.69;97457.84;5104477;28;1493;-80
2022/12/13 11:36:31;;;;;;;;;;;;;;;21.25;20.43;97460.84;5108086;28;1902;-80
2022/12/13 11:39:00;;;;;;;;;;;;;;;21.46;19.83;97459.34;5110649;28;1211;-81
2022/12/13 11:41:27;;;;;;;;;;;;;;;21.22;20.12;97470.22;5109906;28;1173;-80
2022/12/13 11:43:54;;;;;;;;;;;;;;;21.51;19.80;97473.72;5092298;28;1205;-81
2022/12/13 11:46:23;;;;;;;;;;;;;;;21.55;19.66;97468.72;5107221;28;1063;-81
2022/12/13 11:48:53;;;;;;;;;;;;;;;21.26;20.00;97480.19;5109880;28;1212;-81
2022/12/13 11:51:24;;;;;;;;;;;;;;;20.97;20.23;97471.06;5118888;28;957;-80
2022/12/13 11:54:00;;;;;;;;;;;;;;;21.46;19.90;97482.78;5096945;28;1198;-81
2022/12/13 11:56:34;;;;;;;;;;;;;;;21.35;19.94;97473.06;5097350;28;1980;-81
2022/12/13 11:59:18;;;;;;;;;;;;;;;21.12;20.03;97465.72;5097218;28;983;-80
2022/12/13 12:02:09;;;;;;;;;;;;;;;21.02;20.29;97459.16;5097477;28;1076;-80
2022/12/13 12:04:50;;;;;;;;;;;;;;;20.81;20.46;97477.63;5056229;28;1245;-80
2022/12/13 12:07:17;;;;;;;;;;;;;;;21.32;19.91;97472.72;5057059;28;1279;-80
2022/12/13 12:09:56;;;;;;;;;;;;;;;21.38;19.86;97475.00;5056558;28;957;-80
2022/12/13 12:12:31;;;;;;;;;;;;;;;21.16;19.97;97474.88;5056610;28;1054;-81
2022/12/13 12:14:58;;;;;;;;;;;;;;;21.20;20.15;97470.69;5056172;28;1993;-80
2022/12/13 12:17:25;;;;;;;;;;;;;;;21.12;20.32;97471.38;5056572;28;996;-81
2022/12/13 12:19:53;;;;;;;;;;;;;;;21.31;19.95;97476.81;5039320;28;956;-80
2022/12/13 12:22:24;;;;;;;;;;;;;;;21.44;19.72;97468.28;5056902;28;988;-80
2022/12/13 12:24:59;;;;;;;;;;;;;;;21.26;19.91;97473.75;5056580;28;941;-80
2022/12/13 12:27:27;;;;;;;;;;;;;;;21.17;20.32;97490.63;5039495;28;980;-80
2022/12/13 12:30:08;;;;;;;;;;;;;;;21.00;20.34;97489.97;5055999;28;909;-80
2022/12/13 12:32:49;;;;;;;;;;;;;;;21.43;20.02;97495.00;5056295;28;1149;-80
2022/12/13 12:35:14;;;;;;;;;;;;;;;21.43;19.96;97494.22;5055904;28;1902;-81
2022/12/13 12:37:52;;;;;;;;;;;;;;;21.46;20.11;97496.94;5016212;28;1442;-81
2022/12/13 12:40:36;;;;;;;;;;;;;;;20.97;20.77;97516.31;5019248;28;929;-80
2022/12/13 12:43:09;;;;;;;;;;;;;;;20.52;21.36;97512.44;5075812;28;883;-80
2022/12/13 12:45:40;;;;;;;;;;;;;;;21.07;20.49;97509.50;5059700;28;1128;-80
2022/12/13 12:48:29;;;;;;;;;;;;;;;21.32;20.46;97505.91;5075527;28;981;-79
2022/12/13 12:51:03;;;;;;;;;;;;;;;21.43;20.05;97508.38;5019524;28;919;-79
2022/12/13 12:53:35;;;;;;;;;;;;;;;21.08;20.68;97508.25;5035574;28;956;-78
2022/12/13 12:56:04;;;;;;;;;;;;;;;20.81;20.72;97515.16;5019945;28;1988;-78
2022/12/13 12:58:33;;;;;;;;;;;;;;;20.86;20.82;97527.16;5018759;28;889;-78
2022/12/13 13:01:20;;;;;;;;;;;;;;;21.04;20.63;97527.41;5019727;28;1044;-78
2022/12/13 13:03:46;;;;;;;;;;;;;;;21.28;20.22;97517.31;4995872;28;979;-78
2022/12/13 13:06:32;;;;;;;;;;;;;;;21.20;20.23;97532.94;4980800;28;1041;-78